sensor_id;sensor_type;location;lat;lon;timestamp;temperature;humidity
61979;DHT22;47938;48.176;16.414;2022-11-20T00:01:12;0.80;88.20
61979;DHT22;47938;48.176;16.414;2022-11-20T00:03:38;0.90;88.10
61979;DHT22;47938;48.176;16.414;2022-11-20T00:06:13;1.00;86.10
61979;DHT22;47938;48.176;16.414;2022-11-20T00:08:40;1.00;84.80
61979;DHT22;47938;48.176;16.414;2022-11-20T00:11:17;1.00;85.60
61979;DHT22;47938;48.176;16.414;2022-11-20T00:13:44;1.00;83.80
61979;DHT22;47938;48.176;16.414;2022-11-20T00:16:10;1.00;84.50
61979;DHT22;47938;48.176;16.414;2022-11-20T00:18:37;1.00;84.80
61979;DHT22;47938;48.176;16.414;2022-11-20T00:21:10;1.00;84.60
61979;DHT22;47938;48.176;16.414;2022-11-20T00:23:36;1.00;84.80
61979;DHT22;47938;48.176;16.414;2022-11-20T00:26:06;1.00;85.30
61979;DHT22;47938;48.176;16.414;2022-11-20T00:28:32;1.10;84.70
61979;DHT22;47938;48.176;16.414;2022-11-20T00:31:06;1.00;84.50
61979;DHT22;47938;48.176;16.414;2022-11-20T00:33:32;1.10;85.30
61979;DHT22;47938;48.176;16.414;2022-11-20T00:36:06;1.10;84.60
61979;DHT22;47938;48.176;16.414;2022-11-20T00:38:32;1.10;85.00
61979;DHT22;47938;48.176;16.414;2022-11-20T00:41:00;1.00;84.30
61979;DHT22;47938;48.176;16.414;2022-11-20T00:43:26;1.10;85.30
61979;DHT22;47938;48.176;16.414;2022-11-20T00:46:06;1.10;85.00
61979;DHT22;47938;48.176;16.414;2022-11-20T00:48:33;1.10;85.80
61979;DHT22;47938;48.176;16.414;2022-11-20T00:50:58;1.00;86.10
61979;DHT22;47938;48.176;16.414;2022-11-20T00:53:25;1.00;86.50
61979;DHT22;47938;48.176;16.414;2022-11-20T00:56:01;1.00;85.80
61979;DHT22;47938;48.176;16.414;2022-11-20T00:58:47;1.00;85.80
61979;DHT22;47938;48.176;16.414;2022-11-20T01:03:44;1.00;86.10
61979;DHT22;47938;48.176;16.414;2022-11-20T01:06:17;1.00;84.90
61979;DHT22;47938;48.176;16.414;2022-11-20T01:08:43;1.00;85.90
61979;DHT22;47938;48.176;16.414;2022-11-20T01:11:17;1.10;85.60
61979;DHT22;47938;48.176;16.414;2022-11-20T01:13:45;1.10;84.80
61979;DHT22;47938;48.176;16.414;2022-11-20T01:16:21;1.10;84.30
61979;DHT22;47938;48.176;16.414;2022-11-20T01:18:49;1.20;84.40
61979;DHT22;47938;48.176;16.414;2022-11-20T01:21:18;1.20;83.80
61979;DHT22;47938;48.176;16.414;2022-11-20T01:23:45;1.10;84.20
61979;DHT22;47938;48.176;16.414;2022-11-20T01:26:13;1.20;85.00
61979;DHT22;47938;48.176;16.414;2022-11-20T01:28:40;1.30;85.10
61979;DHT22;47938;48.176;16.414;2022-11-20T01:31:17;1.20;85.80
61979;DHT22;47938;48.176;16.414;2022-11-20T01:33:44;1.20;87.20
61979;DHT22;47938;48.176;16.414;2022-11-20T01:36:11;1.30;87.00
61979;DHT22;47938;48.176;16.414;2022-11-20T01:38:37;1.20;86.50
61979;DHT22;47938;48.176;16.414;2022-11-20T01:41:03;1.30;86.60
61979;DHT22;47938;48.176;16.414;2022-11-20T01:43:29;1.30;86.00
61979;DHT22;47938;48.176;16.414;2022-11-20T01:46:16;1.40;84.70
61979;DHT22;47938;48.176;16.414;2022-11-20T01:51:43;1.40;84.60
61979;DHT22;47938;48.176;16.414;2022-11-20T01:54:18;1.30;87.00
61979;DHT22;47938;48.176;16.414;2022-11-20T01:56:46;1.30;87.20
61979;DHT22;47938;48.176;16.414;2022-11-20T01:59:15;1.30;87.90
61979;DHT22;47938;48.176;16.414;2022-11-20T02:01:41;1.30;89.20
61979;DHT22;47938;48.176;16.414;2022-11-20T02:04:08;1.40;89.30
61979;DHT22;47938;48.176;16.414;2022-11-20T02:06:45;1.40;89.30
61979;DHT22;47938;48.176;16.414;2022-11-20T02:09:13;1.40;89.00
61979;DHT22;47938;48.176;16.414;2022-11-20T02:11:39;1.30;88.90
61979;DHT22;47938;48.176;16.414;2022-11-20T02:14:04;1.30;90.00
61979;DHT22;47938;48.176;16.414;2022-11-20T02:16:34;1.20;90.40
61979;DHT22;47938;48.176;16.414;2022-11-20T02:19:04;1.20;90.90
61979;DHT22;47938;48.176;16.414;2022-11-20T02:21:43;1.30;91.20
61979;DHT22;47938;48.176;16.414;2022-11-20T02:24:14;1.30;91.10
61979;DHT22;47938;48.176;16.414;2022-11-20T02:26:57;1.40;90.90
61979;DHT22;47938;48.176;16.414;2022-11-20T02:29:26;1.40;91.10
61979;DHT22;47938;48.176;16.414;2022-11-20T02:31:55;1.50;91.20
61979;DHT22;47938;48.176;16.414;2022-11-20T02:34:21;1.50;90.90
61979;DHT22;47938;48.176;16.414;2022-11-20T02:36:47;1.50;90.80
61979;DHT22;47938;48.176;16.414;2022-11-20T02:39:15;1.50;90.40
61979;DHT22;47938;48.176;16.414;2022-11-20T02:41:40;1.60;90.30
61979;DHT22;47938;48.176;16.414;2022-11-20T02:44:06;1.60;90.20
61979;DHT22;47938;48.176;16.414;2022-11-20T02:46:32;1.60;90.40
61979;DHT22;47938;48.176;16.414;2022-11-20T02:48:58;1.60;90.20
61979;DHT22;47938;48.176;16.414;2022-11-20T02:51:24;1.60;90.20
61979;DHT22;47938;48.176;16.414;2022-11-20T02:53:50;1.60;89.30
61979;DHT22;47938;48.176;16.414;2022-11-20T02:56:16;1.60;87.90
61979;DHT22;47938;48.176;16.414;2022-11-20T02:58:41;1.60;86.60
61979;DHT22;47938;48.176;16.414;2022-11-20T03:01:07;1.60;86.90
61979;DHT22;47938;48.176;16.414;2022-11-20T03:03:32;1.60;86.40
61979;DHT22;47938;48.176;16.414;2022-11-20T03:05:59;1.60;86.50
61979;DHT22;47938;48.176;16.414;2022-11-20T03:08:25;1.60;86.70
61979;DHT22;47938;48.176;16.414;2022-11-20T03:10:51;1.70;87.30
61979;DHT22;47938;48.176;16.414;2022-11-20T03:13:16;1.70;86.70
61979;DHT22;47938;48.176;16.414;2022-11-20T03:15:42;1.70;86.20
61979;DHT22;47938;48.176;16.414;2022-11-20T03:18:08;1.70;86.10
61979;DHT22;47938;48.176;16.414;2022-11-20T03:20:34;1.70;85.30
61979;DHT22;47938;48.176;16.414;2022-11-20T03:23:00;1.70;86.10
61979;DHT22;47938;48.176;16.414;2022-11-20T03:25:26;1.70;86.90
61979;DHT22;47938;48.176;16.414;2022-11-20T03:27:51;1.70;84.40
61979;DHT22;47938;48.176;16.414;2022-11-20T03:30:17;1.70;85.10
61979;DHT22;47938;48.176;16.414;2022-11-20T03:32:43;1.70;83.90
61979;DHT22;47938;48.176;16.414;2022-11-20T03:35:09;1.70;84.50
61979;DHT22;47938;48.176;16.414;2022-11-20T03:37:34;1.70;84.80
61979;DHT22;47938;48.176;16.414;2022-11-20T03:40:00;1.70;84.00
61979;DHT22;47938;48.176;16.414;2022-11-20T03:42:26;1.70;84.30
61979;DHT22;47938;48.176;16.414;2022-11-20T03:44:51;1.70;85.30
61979;DHT22;47938;48.176;16.414;2022-11-20T03:47:17;1.70;85.10
61979;DHT22;47938;48.176;16.414;2022-11-20T03:49:42;1.70;85.70
61979;DHT22;47938;48.176;16.414;2022-11-20T03:52:08;1.70;85.50
61979;DHT22;47938;48.176;16.414;2022-11-20T03:54:33;1.70;85.80
61979;DHT22;47938;48.176;16.414;2022-11-20T03:56:59;1.60;85.30
61979;DHT22;47938;48.176;16.414;2022-11-20T03:59:25;1.50;88.10
61979;DHT22;47938;48.176;16.414;2022-11-20T04:01:50;1.50;88.20
61979;DHT22;47938;48.176;16.414;2022-11-20T04:04:16;1.60;87.50
61979;DHT22;47938;48.176;16.414;2022-11-20T04:06:41;1.60;87.80
61979;DHT22;47938;48.176;16.414;2022-11-20T04:09:07;1.60;86.50
61979;DHT22;47938;48.176;16.414;2022-11-20T04:11:35;1.60;84.60
61979;DHT22;47938;48.176;16.414;2022-11-20T04:14:03;1.60;82.80
61979;DHT22;47938;48.176;16.414;2022-11-20T04:16:30;1.60;84.90
61979;DHT22;47938;48.176;16.414;2022-11-20T04:18:59;1.60;85.20
61979;DHT22;47938;48.176;16.414;2022-11-20T04:21:25;1.50;84.90
61979;DHT22;47938;48.176;16.414;2022-11-20T04:23:52;1.50;86.50
61979;DHT22;47938;48.176;16.414;2022-11-20T04:26:18;1.60;85.20
61979;DHT22;47938;48.176;16.414;2022-11-20T04:28:43;1.60;83.90
61979;DHT22;47938;48.176;16.414;2022-11-20T04:31:11;1.60;83.60
61979;DHT22;47938;48.176;16.414;2022-11-20T04:33:38;1.60;83.60
61979;DHT22;47938;48.176;16.414;2022-11-20T04:36:06;1.60;85.20
61979;DHT22;47938;48.176;16.414;2022-11-20T04:38:32;1.50;84.90
61979;DHT22;47938;48.176;16.414;2022-11-20T04:41:02;1.30;85.60
61979;DHT22;47938;48.176;16.414;2022-11-20T04:43:28;1.30;87.70
61979;DHT22;47938;48.176;16.414;2022-11-20T04:45:55;1.40;88.10
61979;DHT22;47938;48.176;16.414;2022-11-20T04:48:21;1.30;87.40
61979;DHT22;47938;48.176;16.414;2022-11-20T04:50:47;1.40;87.90
61979;DHT22;47938;48.176;16.414;2022-11-20T04:53:13;1.40;87.80
61979;DHT22;47938;48.176;16.414;2022-11-20T04:55:39;1.30;88.10
61979;DHT22;47938;48.176;16.414;2022-11-20T04:58:04;1.30;90.40
61979;DHT22;47938;48.176;16.414;2022-11-20T05:00:30;1.20;91.00
61979;DHT22;47938;48.176;16.414;2022-11-20T05:02:56;1.30;91.40
61979;DHT22;47938;48.176;16.414;2022-11-20T05:05:21;1.30;90.40
61979;DHT22;47938;48.176;16.414;2022-11-20T05:07:47;1.30;88.10
61979;DHT22;47938;48.176;16.414;2022-11-20T05:10:12;1.30;88.70
61979;DHT22;47938;48.176;16.414;2022-11-20T05:12:38;1.40;89.70
61979;DHT22;47938;48.176;16.414;2022-11-20T05:15:04;1.40;90.40
61979;DHT22;47938;48.176;16.414;2022-11-20T05:17:29;1.30;91.00
61979;DHT22;47938;48.176;16.414;2022-11-20T05:19:55;1.40;91.50
61979;DHT22;47938;48.176;16.414;2022-11-20T05:22:21;1.40;91.40
61979;DHT22;47938;48.176;16.414;2022-11-20T05:24:47;1.40;91.50
61979;DHT22;47938;48.176;16.414;2022-11-20T05:27:12;1.40;91.30
61979;DHT22;47938;48.176;16.414;2022-11-20T05:29:38;1.40;93.20
61979;DHT22;47938;48.176;16.414;2022-11-20T05:32:04;1.40;94.40
61979;DHT22;47938;48.176;16.414;2022-11-20T05:34:29;1.50;95.10
61979;DHT22;47938;48.176;16.414;2022-11-20T05:36:55;1.40;97.60
61979;DHT22;47938;48.176;16.414;2022-11-20T05:39:20;1.40;97.50
61979;DHT22;47938;48.176;16.414;2022-11-20T05:41:46;1.40;99.70
61979;DHT22;47938;48.176;16.414;2022-11-20T05:44:12;1.40;99.50
61979;DHT22;47938;48.176;16.414;2022-11-20T05:46:38;1.30;99.90
61979;DHT22;47938;48.176;16.414;2022-11-20T05:49:04;1.10;99.90
61979;DHT22;47938;48.176;16.414;2022-11-20T05:51:29;1.00;99.90
61979;DHT22;47938;48.176;16.414;2022-11-20T05:53:58;0.90;99.90
61979;DHT22;47938;48.176;16.414;2022-11-20T05:56:23;0.90;99.90
61979;DHT22;47938;48.176;16.414;2022-11-20T05:58:49;0.80;99.90
61979;DHT22;47938;48.176;16.414;2022-11-20T06:01:21;0.80;99.90
61979;DHT22;47938;48.176;16.414;2022-11-20T06:03:48;0.80;99.90
61979;DHT22;47938;48.176;16.414;2022-11-20T06:06:14;0.80;99.90
61979;DHT22;47938;48.176;16.414;2022-11-20T06:08:40;0.70;99.90
61979;DHT22;47938;48.176;16.414;2022-11-20T06:11:08;0.70;99.90
61979;DHT22;47938;48.176;16.414;2022-11-20T06:13:34;0.70;99.90
61979;DHT22;47938;48.176;16.414;2022-11-20T06:16:00;0.70;99.90
61979;DHT22;47938;48.176;16.414;2022-11-20T06:18:27;0.60;99.90
61979;DHT22;47938;48.176;16.414;2022-11-20T06:21:09;0.60;99.90
61979;DHT22;47938;48.176;16.414;2022-11-20T06:23:35;0.60;99.90
61979;DHT22;47938;48.176;16.414;2022-11-20T06:26:03;0.50;99.90
61979;DHT22;47938;48.176;16.414;2022-11-20T06:28:29;0.50;99.90
61979;DHT22;47938;48.176;16.414;2022-11-20T06:30:54;0.60;99.90
61979;DHT22;47938;48.176;16.414;2022-11-20T06:33:20;0.60;99.90
61979;DHT22;47938;48.176;16.414;2022-11-20T06:35:45;0.60;99.90
61979;DHT22;47938;48.176;16.414;2022-11-20T06:38:11;0.70;99.90
61979;DHT22;47938;48.176;16.414;2022-11-20T06:40:40;0.70;99.90
61979;DHT22;47938;48.176;16.414;2022-11-20T06:43:05;0.70;99.90
61979;DHT22;47938;48.176;16.414;2022-11-20T06:45:31;0.60;99.90
61979;DHT22;47938;48.176;16.414;2022-11-20T06:48:00;0.70;99.90
61979;DHT22;47938;48.176;16.414;2022-11-20T06:50:25;0.70;99.90
61979;DHT22;47938;48.176;16.414;2022-11-20T06:52:51;0.80;99.90
61979;DHT22;47938;48.176;16.414;2022-11-20T06:55:16;0.90;99.90
61979;DHT22;47938;48.176;16.414;2022-11-20T06:57:42;0.90;99.90
61979;DHT22;47938;48.176;16.414;2022-11-20T07:00:08;0.70;99.90
61979;DHT22;47938;48.176;16.414;2022-11-20T07:02:34;0.70;99.90
61979;DHT22;47938;48.176;16.414;2022-11-20T07:04:59;0.70;99.90
61979;DHT22;47938;48.176;16.414;2022-11-20T07:07:25;0.80;99.90
61979;DHT22;47938;48.176;16.414;2022-11-20T07:09:50;0.80;99.90
61979;DHT22;47938;48.176;16.414;2022-11-20T07:12:16;0.80;99.90
61979;DHT22;47938;48.176;16.414;2022-11-20T07:14:42;0.70;99.90
61979;DHT22;47938;48.176;16.414;2022-11-20T07:17:07;0.60;99.90
61979;DHT22;47938;48.176;16.414;2022-11-20T07:19:33;0.60;99.90
61979;DHT22;47938;48.176;16.414;2022-11-20T07:21:58;0.70;99.90
61979;DHT22;47938;48.176;16.414;2022-11-20T07:24:24;0.80;99.90
61979;DHT22;47938;48.176;16.414;2022-11-20T07:26:50;0.80;99.90
61979;DHT22;47938;48.176;16.414;2022-11-20T07:29:15;0.80;99.90
61979;DHT22;47938;48.176;16.414;2022-11-20T07:31:41;0.80;99.90
61979;DHT22;47938;48.176;16.414;2022-11-20T07:34:07;0.80;99.90
61979;DHT22;47938;48.176;16.414;2022-11-20T07:36:32;0.80;99.90
61979;DHT22;47938;48.176;16.414;2022-11-20T07:38:58;0.80;99.90
61979;DHT22;47938;48.176;16.414;2022-11-20T07:41:25;0.80;99.90
61979;DHT22;47938;48.176;16.414;2022-11-20T07:43:50;0.80;99.90
61979;DHT22;47938;48.176;16.414;2022-11-20T07:46:16;0.80;99.90
61979;DHT22;47938;48.176;16.414;2022-11-20T07:48:41;0.90;99.90
61979;DHT22;47938;48.176;16.414;2022-11-20T07:51:07;0.90;99.90
61979;DHT22;47938;48.176;16.414;2022-11-20T07:53:33;1.00;99.90
61979;DHT22;47938;48.176;16.414;2022-11-20T07:56:02;1.00;99.90
61979;DHT22;47938;48.176;16.414;2022-11-20T07:58:31;1.00;99.90
61979;DHT22;47938;48.176;16.414;2022-11-20T08:00:57;1.10;99.90
61979;DHT22;47938;48.176;16.414;2022-11-20T08:03:22;1.20;99.90
61979;DHT22;47938;48.176;16.414;2022-11-20T08:05:48;1.20;99.90
61979;DHT22;47938;48.176;16.414;2022-11-20T08:08:14;1.20;99.90
61979;DHT22;47938;48.176;16.414;2022-11-20T08:10:39;1.20;99.90
61979;DHT22;47938;48.176;16.414;2022-11-20T08:13:05;1.30;99.90
61979;DHT22;47938;48.176;16.414;2022-11-20T08:15:31;1.40;99.90
61979;DHT22;47938;48.176;16.414;2022-11-20T08:18:05;1.40;99.90
61979;DHT22;47938;48.176;16.414;2022-11-20T08:20:31;1.30;99.90
61979;DHT22;47938;48.176;16.414;2022-11-20T08:23:04;1.30;99.90
61979;DHT22;47938;48.176;16.414;2022-11-20T08:25:31;1.40;99.90
61979;DHT22;47938;48.176;16.414;2022-11-20T08:28:01;1.40;99.90
61979;DHT22;47938;48.176;16.414;2022-11-20T08:30:28;1.30;99.90
61979;DHT22;47938;48.176;16.414;2022-11-20T08:32:54;1.40;99.90
61979;DHT22;47938;48.176;16.414;2022-11-20T08:35:21;1.50;99.90
61979;DHT22;47938;48.176;16.414;2022-11-20T08:37:47;1.60;99.90
61979;DHT22;47938;48.176;16.414;2022-11-20T08:40:13;1.60;99.90
61979;DHT22;47938;48.176;16.414;2022-11-20T08:42:49;1.60;99.90
61979;DHT22;47938;48.176;16.414;2022-11-20T08:45:16;1.60;99.90
61979;DHT22;47938;48.176;16.414;2022-11-20T08:47:42;1.70;99.90
61979;DHT22;47938;48.176;16.414;2022-11-20T08:50:12;1.60;99.90
61979;DHT22;47938;48.176;16.414;2022-11-20T08:52:38;1.70;99.90
61979;DHT22;47938;48.176;16.414;2022-11-20T08:55:05;1.80;99.90
61979;DHT22;47938;48.176;16.414;2022-11-20T08:57:37;1.80;98.70
61979;DHT22;47938;48.176;16.414;2022-11-20T09:00:04;1.70;98.70
61979;DHT22;47938;48.176;16.414;2022-11-20T09:02:30;1.80;99.90
61979;DHT22;47938;48.176;16.414;2022-11-20T09:04:56;1.80;98.30
61979;DHT22;47938;48.176;16.414;2022-11-20T09:07:21;1.90;98.00
61979;DHT22;47938;48.176;16.414;2022-11-20T09:09:47;1.90;97.90
61979;DHT22;47938;48.176;16.414;2022-11-20T09:12:13;2.00;96.90
61979;DHT22;47938;48.176;16.414;2022-11-20T09:14:39;2.10;97.40
61979;DHT22;47938;48.176;16.414;2022-11-20T09:17:04;2.20;95.90
61979;DHT22;47938;48.176;16.414;2022-11-20T09:19:30;2.20;95.00
61979;DHT22;47938;48.176;16.414;2022-11-20T09:21:55;2.30;94.00
61979;DHT22;47938;48.176;16.414;2022-11-20T09:24:21;2.50;94.40
61979;DHT22;47938;48.176;16.414;2022-11-20T09:26:46;2.50;92.80
61979;DHT22;47938;48.176;16.414;2022-11-20T09:29:12;2.60;92.70
61979;DHT22;47938;48.176;16.414;2022-11-20T09:31:38;2.60;92.70
61979;DHT22;47938;48.176;16.414;2022-11-20T09:34:03;2.70;92.50
61979;DHT22;47938;48.176;16.414;2022-11-20T09:36:29;2.70;92.20
61979;DHT22;47938;48.176;16.414;2022-11-20T09:38:55;2.70;92.80
61979;DHT22;47938;48.176;16.414;2022-11-20T09:44:18;2.70;93.10
61979;DHT22;47938;48.176;16.414;2022-11-20T09:50:07;2.70;91.80
61979;DHT22;47938;48.176;16.414;2022-11-20T09:55:13;2.70;92.70
61979;DHT22;47938;48.176;16.414;2022-11-20T09:57:42;2.70;92.40
61979;DHT22;47938;48.176;16.414;2022-11-20T10:00:12;2.70;92.80
61979;DHT22;47938;48.176;16.414;2022-11-20T10:02:59;2.70;93.10
61979;DHT22;47938;48.176;16.414;2022-11-20T10:05:31;2.80;93.00
61979;DHT22;47938;48.176;16.414;2022-11-20T10:13:55;2.90;93.50
61979;DHT22;47938;48.176;16.414;2022-11-20T10:19:06;3.00;92.70
61979;DHT22;47938;48.176;16.414;2022-11-20T10:21:51;3.20;92.30
61979;DHT22;47938;48.176;16.414;2022-11-20T10:30:09;3.30;91.00
61979;DHT22;47938;48.176;16.414;2022-11-20T10:32:39;3.30;90.80
61979;DHT22;47938;48.176;16.414;2022-11-20T10:37:45;3.40;90.60
61979;DHT22;47938;48.176;16.414;2022-11-20T10:42:59;3.40;90.30
61979;DHT22;47938;48.176;16.414;2022-11-20T10:50:32;3.60;90.40
61979;DHT22;47938;48.176;16.414;2022-11-20T10:55:48;3.70;90.30
61979;DHT22;47938;48.176;16.414;2022-11-20T11:01:19;3.90;89.70
61979;DHT22;47938;48.176;16.414;2022-11-20T11:03:45;4.10;88.50
61979;DHT22;47938;48.176;16.414;2022-11-20T11:08:53;4.40;86.80
61979;DHT22;47938;48.176;16.414;2022-11-20T11:11:25;4.50;85.80
61979;DHT22;47938;48.176;16.414;2022-11-20T11:13:52;4.60;83.70
61979;DHT22;47938;48.176;16.414;2022-11-20T11:16:26;4.60;83.60
61979;DHT22;47938;48.176;16.414;2022-11-20T11:18:52;4.60;83.60
61979;DHT22;47938;48.176;16.414;2022-11-20T11:21:28;4.50;84.90
61979;DHT22;47938;48.176;16.414;2022-11-20T11:24:03;4.60;84.10
61979;DHT22;47938;48.176;16.414;2022-11-20T11:26:29;4.60;84.40
61979;DHT22;47938;48.176;16.414;2022-11-20T11:28:57;4.60;84.70
61979;DHT22;47938;48.176;16.414;2022-11-20T11:31:27;4.60;84.90
61979;DHT22;47938;48.176;16.414;2022-11-20T11:34:14;4.70;87.10
61979;DHT22;47938;48.176;16.414;2022-11-20T11:36:40;4.70;85.80
61979;DHT22;47938;48.176;16.414;2022-11-20T11:39:11;4.70;85.40
61979;DHT22;47938;48.176;16.414;2022-11-20T11:41:39;4.70;85.50
61979;DHT22;47938;48.176;16.414;2022-11-20T11:44:18;4.70;85.40
61979;DHT22;47938;48.176;16.414;2022-11-20T11:46:55;4.60;85.60
61979;DHT22;47938;48.176;16.414;2022-11-20T11:49:22;4.70;85.90
61979;DHT22;47938;48.176;16.414;2022-11-20T11:54:38;4.80;85.70
61979;DHT22;47938;48.176;16.414;2022-11-20T11:57:17;4.90;85.30
61979;DHT22;47938;48.176;16.414;2022-11-20T12:00:08;4.90;84.50
61979;DHT22;47938;48.176;16.414;2022-11-20T12:11:03;5.30;82.80
61979;DHT22;47938;48.176;16.414;2022-11-20T12:16:03;5.40;81.70
61979;DHT22;47938;48.176;16.414;2022-11-20T12:18:29;5.40;81.20
61979;DHT22;47938;48.176;16.414;2022-11-20T12:21:17;5.50;80.90
61979;DHT22;47938;48.176;16.414;2022-11-20T12:29:13;5.50;81.30
61979;DHT22;47938;48.176;16.414;2022-11-20T12:34:54;5.50;81.80
61979;DHT22;47938;48.176;16.414;2022-11-20T12:37:45;5.60;82.30
61979;DHT22;47938;48.176;16.414;2022-11-20T12:43:26;5.70;80.20
61979;DHT22;47938;48.176;16.414;2022-11-20T12:48:33;5.70;80.60
61979;DHT22;47938;48.176;16.414;2022-11-20T12:59:23;5.70;81.70
61979;DHT22;47938;48.176;16.414;2022-11-20T13:07:21;5.70;81.00
61979;DHT22;47938;48.176;16.414;2022-11-20T13:09:50;5.80;81.10
61979;DHT22;47938;48.176;16.414;2022-11-20T13:12:45;5.90;81.10
61979;DHT22;47938;48.176;16.414;2022-11-20T13:15:23;5.90;80.30
61979;DHT22;47938;48.176;16.414;2022-11-20T13:17:58;6.00;81.10
61979;DHT22;47938;48.176;16.414;2022-11-20T13:20:24;6.10;80.90
61979;DHT22;47938;48.176;16.414;2022-11-20T13:22:55;6.10;80.00
61979;DHT22;47938;48.176;16.414;2022-11-20T13:25:33;6.30;80.40
61979;DHT22;47938;48.176;16.414;2022-11-20T13:28:04;6.30;79.80
61979;DHT22;47938;48.176;16.414;2022-11-20T13:30:31;6.30;79.90
61979;DHT22;47938;48.176;16.414;2022-11-20T13:33:36;6.30;79.50
61979;DHT22;47938;48.176;16.414;2022-11-20T13:38:51;6.10;79.90
61979;DHT22;47938;48.176;16.414;2022-11-20T13:41:32;6.00;80.80
61979;DHT22;47938;48.176;16.414;2022-11-20T13:44:05;6.00;81.10
61979;DHT22;47938;48.176;16.414;2022-11-20T13:46:46;5.90;81.70
61979;DHT22;47938;48.176;16.414;2022-11-20T13:57:22;6.00;83.20
61979;DHT22;47938;48.176;16.414;2022-11-20T14:02:37;5.90;85.50
61979;DHT22;47938;48.176;16.414;2022-11-20T14:05:04;6.00;84.70
61979;DHT22;47938;48.176;16.414;2022-11-20T14:07:40;6.00;84.50
61979;DHT22;47938;48.176;16.414;2022-11-20T14:10:20;6.00;84.10
61979;DHT22;47938;48.176;16.414;2022-11-20T14:12:47;5.90;85.00
61979;DHT22;47938;48.176;16.414;2022-11-20T14:15:33;5.80;85.70
61979;DHT22;47938;48.176;16.414;2022-11-20T14:17:59;5.80;86.30
61979;DHT22;47938;48.176;16.414;2022-11-20T14:20:37;5.80;86.90
61979;DHT22;47938;48.176;16.414;2022-11-20T14:23:04;5.80;87.00
61979;DHT22;47938;48.176;16.414;2022-11-20T14:25:30;5.80;87.60
61979;DHT22;47938;48.176;16.414;2022-11-20T14:28:00;5.80;87.20
61979;DHT22;47938;48.176;16.414;2022-11-20T14:30:35;5.80;87.70
61979;DHT22;47938;48.176;16.414;2022-11-20T14:33:03;5.80;88.40
61979;DHT22;47938;48.176;16.414;2022-11-20T14:35:35;5.80;88.50
61979;DHT22;47938;48.176;16.414;2022-11-20T14:38:01;5.90;88.10
61979;DHT22;47938;48.176;16.414;2022-11-20T14:40:33;5.80;88.80
61979;DHT22;47938;48.176;16.414;2022-11-20T14:43:00;5.90;90.40
61979;DHT22;47938;48.176;16.414;2022-11-20T14:45:26;5.90;90.20
61979;DHT22;47938;48.176;16.414;2022-11-20T14:47:55;5.90;90.00
61979;DHT22;47938;48.176;16.414;2022-11-20T14:50:23;5.80;90.10
61979;DHT22;47938;48.176;16.414;2022-11-20T14:53:00;5.80;90.30
61979;DHT22;47938;48.176;16.414;2022-11-20T14:55:34;5.80;90.80
61979;DHT22;47938;48.176;16.414;2022-11-20T14:58:06;5.70;90.90
61979;DHT22;47938;48.176;16.414;2022-11-20T15:00:34;5.60;91.30
61979;DHT22;47938;48.176;16.414;2022-11-20T15:03:00;5.60;92.00
61979;DHT22;47938;48.176;16.414;2022-11-20T15:05:45;5.60;92.60
61979;DHT22;47938;48.176;16.414;2022-11-20T15:08:12;5.50;92.90
61979;DHT22;47938;48.176;16.414;2022-11-20T15:10:44;5.50;94.90
61979;DHT22;47938;48.176;16.414;2022-11-20T15:13:13;5.40;95.20
61979;DHT22;47938;48.176;16.414;2022-11-20T15:15:55;5.20;95.30
61979;DHT22;47938;48.176;16.414;2022-11-20T15:18:24;5.10;96.50
61979;DHT22;47938;48.176;16.414;2022-11-20T15:20:57;5.10;97.80
61979;DHT22;47938;48.176;16.414;2022-11-20T15:23:23;5.00;99.90
61979;DHT22;47938;48.176;16.414;2022-11-20T15:25:51;5.10;99.90
61979;DHT22;47938;48.176;16.414;2022-11-20T15:28:23;5.00;99.90
61979;DHT22;47938;48.176;16.414;2022-11-20T15:30:51;4.90;99.80
61979;DHT22;47938;48.176;16.414;2022-11-20T15:33:18;4.90;99.90
61979;DHT22;47938;48.176;16.414;2022-11-20T15:35:44;4.80;99.90
61979;DHT22;47938;48.176;16.414;2022-11-20T15:38:10;4.80;99.90
61979;DHT22;47938;48.176;16.414;2022-11-20T15:40:36;4.80;99.90
61979;DHT22;47938;48.176;16.414;2022-11-20T15:43:02;4.80;99.90
61979;DHT22;47938;48.176;16.414;2022-11-20T15:45:48;4.70;99.90
61979;DHT22;47938;48.176;16.414;2022-11-20T15:48:19;4.60;99.90
61979;DHT22;47938;48.176;16.414;2022-11-20T15:53:41;4.60;99.90
61979;DHT22;47938;48.176;16.414;2022-11-20T15:56:11;4.50;99.90
61979;DHT22;47938;48.176;16.414;2022-11-20T15:58:38;4.50;99.90
61979;DHT22;47938;48.176;16.414;2022-11-20T16:01:04;4.50;99.90
61979;DHT22;47938;48.176;16.414;2022-11-20T16:03:30;4.40;99.90
61979;DHT22;47938;48.176;16.414;2022-11-20T16:05:56;4.40;99.90
61979;DHT22;47938;48.176;16.414;2022-11-20T16:08:22;4.40;99.90
61979;DHT22;47938;48.176;16.414;2022-11-20T16:10:48;4.30;99.90
61979;DHT22;47938;48.176;16.414;2022-11-20T16:13:16;4.30;99.90
61979;DHT22;47938;48.176;16.414;2022-11-20T16:15:42;4.20;99.90
61979;DHT22;47938;48.176;16.414;2022-11-20T16:18:10;4.10;99.90
61979;DHT22;47938;48.176;16.414;2022-11-20T16:20:37;4.10;99.90
61979;DHT22;47938;48.176;16.414;2022-11-20T16:23:03;4.10;99.90
61979;DHT22;47938;48.176;16.414;2022-11-20T16:25:29;4.10;99.90
61979;DHT22;47938;48.176;16.414;2022-11-20T16:27:55;4.10;99.90
61979;DHT22;47938;48.176;16.414;2022-11-20T16:30:21;4.10;99.90
61979;DHT22;47938;48.176;16.414;2022-11-20T16:32:47;4.10;99.90
61979;DHT22;47938;48.176;16.414;2022-11-20T16:35:12;4.20;99.90
61979;DHT22;47938;48.176;16.414;2022-11-20T16:37:38;4.10;99.90
61979;DHT22;47938;48.176;16.414;2022-11-20T16:40:05;4.00;99.90
61979;DHT22;47938;48.176;16.414;2022-11-20T16:42:34;4.10;99.90
61979;DHT22;47938;48.176;16.414;2022-11-20T16:45:00;4.00;99.90
61979;DHT22;47938;48.176;16.414;2022-11-20T16:47:26;4.00;99.90
61979;DHT22;47938;48.176;16.414;2022-11-20T16:49:52;4.00;99.90
61979;DHT22;47938;48.176;16.414;2022-11-20T16:52:18;4.00;99.90
61979;DHT22;47938;48.176;16.414;2022-11-20T16:54:44;4.00;99.90
61979;DHT22;47938;48.176;16.414;2022-11-20T16:57:10;4.10;99.90
61979;DHT22;47938;48.176;16.414;2022-11-20T16:59:36;4.10;99.90
61979;DHT22;47938;48.176;16.414;2022-11-20T17:02:02;4.10;99.90
61979;DHT22;47938;48.176;16.414;2022-11-20T17:04:28;4.10;99.90
61979;DHT22;47938;48.176;16.414;2022-11-20T17:06:54;4.10;99.90
61979;DHT22;47938;48.176;16.414;2022-11-20T17:09:19;4.00;99.90
61979;DHT22;47938;48.176;16.414;2022-11-20T17:11:47;4.00;99.90
61979;DHT22;47938;48.176;16.414;2022-11-20T17:14:13;4.00;99.90
61979;DHT22;47938;48.176;16.414;2022-11-20T17:16:39;3.90;99.90
61979;DHT22;47938;48.176;16.414;2022-11-20T17:19:05;3.90;99.90
61979;DHT22;47938;48.176;16.414;2022-11-20T17:21:32;3.90;99.90
61979;DHT22;47938;48.176;16.414;2022-11-20T17:24:03;3.90;99.90